sensor_id;sensor_type;location;lat;lon;timestamp;P1;durP1;ratioP1;P2;durP2;ratioP2
35715;SDS011;21840;44.920;8.616;2023-02-01T00:01:26;60.92;;;30.38;;
35715;SDS011;21840;44.920;8.616;2023-02-01T00:03:52;61.65;;;30.20;;
35715;SDS011;21840;44.920;8.616;2023-02-01T00:06:17;57.80;;;29.45;;
35715;SDS011;21840;44.920;8.616;2023-02-01T00:08:43;58.38;;;31.05;;
35715;SDS011;21840;44.920;8.616;2023-02-01T00:11:09;65.57;;;29.65;;
35715;SDS011;21840;44.920;8.616;2023-02-01T00:13:37;60.38;;;29.10;;
35715;SDS011;21840;44.920;8.616;2023-02-01T00:16:08;61.92;;;29.38;;
35715;SDS011;21840;44.920;8.616;2023-02-01T00:18:37;56.63;;;29.25;;
35715;SDS011;21840;44.920;8.616;2023-02-01T00:21:03;67.90;;;29.38;;
35715;SDS011;21840;44.920;8.616;2023-02-01T00:23:31;54.22;;;27.75;;
35715;SDS011;21840;44.920;8.616;2023-02-01T00:26:00;55.78;;;29.13;;
35715;SDS011;21840;44.920;8.616;2023-02-01T00:28:26;54.38;;;27.65;;
35715;SDS011;21840;44.920;8.616;2023-02-01T00:30:58;56.45;;;29.02;;
35715;SDS011;21840;44.920;8.616;2023-02-01T00:33:26;57.40;;;27.98;;
35715;SDS011;21840;44.920;8.616;2023-02-01T00:35:56;54.25;;;28.75;;
35715;SDS011;21840;44.920;8.616;2023-02-01T00:38:26;59.00;;;27.80;;
35715;SDS011;21840;44.920;8.616;2023-02-01T00:40:53;54.17;;;27.83;;
35715;SDS011;21840;44.920;8.616;2023-02-01T00:43:19;57.55;;;28.38;;
35715;SDS011;21840;44.920;8.616;2023-02-01T00:45:45;59.28;;;26.38;;
35715;SDS011;21840;44.920;8.616;2023-02-01T00:48:12;52.40;;;27.42;;
35715;SDS011;21840;44.920;8.616;2023-02-01T00:50:43;61.88;;;29.70;;
35715;SDS011;21840;44.920;8.616;2023-02-01T00:53:10;56.33;;;28.95;;
35715;SDS011;21840;44.920;8.616;2023-02-01T00:55:36;50.97;;;27.65;;
35715;SDS011;21840;44.920;8.616;2023-02-01T00:58:02;53.05;;;28.40;;
35715;SDS011;21840;44.920;8.616;2023-02-01T01:00:31;53.38;;;28.00;;
35715;SDS011;21840;44.920;8.616;2023-02-01T01:02:57;57.63;;;28.05;;
35715;SDS011;21840;44.920;8.616;2023-02-01T01:05:22;54.35;;;29.15;;
35715;SDS011;21840;44.920;8.616;2023-02-01T01:07:48;53.13;;;28.60;;
35715;SDS011;21840;44.920;8.616;2023-02-01T01:10:14;54.35;;;28.13;;
35715;SDS011;21840;44.920;8.616;2023-02-01T01:12:40;54.30;;;28.77;;
35715;SDS011;21840;44.920;8.616;2023-02-01T01:15:06;57.83;;;28.05;;
35715;SDS011;21840;44.920;8.616;2023-02-01T01:17:32;58.17;;;29.15;;
35715;SDS011;21840;44.920;8.616;2023-02-01T01:19:58;53.88;;;27.95;;
35715;SDS011;21840;44.920;8.616;2023-02-01T01:22:23;53.45;;;26.77;;
35715;SDS011;21840;44.920;8.616;2023-02-01T01:24:49;55.30;;;28.05;;
35715;SDS011;21840;44.920;8.616;2023-02-01T01:27:14;52.85;;;27.02;;
35715;SDS011;21840;44.920;8.616;2023-02-01T01:29:40;58.95;;;28.33;;
35715;SDS011;21840;44.920;8.616;2023-02-01T01:32:05;54.17;;;27.27;;
35715;SDS011;21840;44.920;8.616;2023-02-01T01:34:31;55.50;;;28.27;;
35715;SDS011;21840;44.920;8.616;2023-02-01T01:36:56;54.13;;;28.10;;
35715;SDS011;21840;44.920;8.616;2023-02-01T01:39:22;65.82;;;29.17;;
35715;SDS011;21840;44.920;8.616;2023-02-01T01:41:47;58.63;;;28.20;;
35715;SDS011;21840;44.920;8.616;2023-02-01T01:47:24;55.17;;;27.60;;
35715;SDS011;21840;44.920;8.616;2023-02-01T01:49:51;52.22;;;26.13;;
35715;SDS011;21840;44.920;8.616;2023-02-01T01:52:18;49.67;;;26.80;;
35715;SDS011;21840;44.920;8.616;2023-02-01T01:54:48;52.60;;;25.35;;
35715;SDS011;21840;44.920;8.616;2023-02-01T01:57:19;51.40;;;25.98;;
35715;SDS011;21840;44.920;8.616;2023-02-01T01:59:58;53.90;;;28.00;;
35715;SDS011;21840;44.920;8.616;2023-02-01T02:02:38;54.42;;;27.48;;
35715;SDS011;21840;44.920;8.616;2023-02-01T02:05:06;52.22;;;26.13;;
35715;SDS011;21840;44.920;8.616;2023-02-01T02:07:34;51.55;;;25.65;;
35715;SDS011;21840;44.920;8.616;2023-02-01T02:10:06;53.30;;;27.00;;
35715;SDS011;21840;44.920;8.616;2023-02-01T02:12:37;51.53;;;24.30;;
35715;SDS011;21840;44.920;8.616;2023-02-01T02:15:09;47.75;;;24.20;;
35715;SDS011;21840;44.920;8.616;2023-02-01T02:17:49;45.80;;;24.05;;
35715;SDS011;21840;44.920;8.616;2023-02-01T02:20:27;53.33;;;25.80;;
35715;SDS011;21840;44.920;8.616;2023-02-01T02:23:38;50.45;;;25.00;;
35715;SDS011;21840;44.920;8.616;2023-02-01T02:25:55;45.97;;;25.02;;
35715;SDS011;21840;44.920;8.616;2023-02-01T02:36:35;51.08;;;26.70;;
35715;SDS011;21840;44.920;8.616;2023-02-01T02:45:54;48.65;;;23.70;;
35715;SDS011;21840;44.920;8.616;2023-02-01T02:51:34;49.70;;;23.70;;
35715;SDS011;21840;44.920;8.616;2023-02-01T02:54:32;52.00;;;25.17;;
35715;SDS011;21840;44.920;8.616;2023-02-01T02:57:24;47.25;;;23.65;;
35715;SDS011;21840;44.920;8.616;2023-02-01T03:00:21;51.60;;;23.70;;
35715;SDS011;21840;44.920;8.616;2023-02-01T03:03:09;48.10;;;24.95;;
35715;SDS011;21840;44.920;8.616;2023-02-01T03:05:53;52.78;;;26.38;;
35715;SDS011;21840;44.920;8.616;2023-02-01T03:08:20;52.55;;;25.35;;
35715;SDS011;21840;44.920;8.616;2023-02-01T03:16:15;49.17;;;24.88;;
35715;SDS011;21840;44.920;8.616;2023-02-01T03:19:04;57.72;;;27.00;;
35715;SDS011;21840;44.920;8.616;2023-02-01T03:21:41;52.13;;;25.27;;
35715;SDS011;21840;44.920;8.616;2023-02-01T03:24:17;50.47;;;26.80;;
35715;SDS011;21840;44.920;8.616;2023-02-01T03:26:49;54.55;;;27.40;;
35715;SDS011;21840;44.920;8.616;2023-02-01T03:29:24;48.47;;;25.33;;
35715;SDS011;21840;44.920;8.616;2023-02-01T03:31:56;54.75;;;26.00;;
35715;SDS011;21840;44.920;8.616;2023-02-01T03:34:21;54.63;;;26.50;;
35715;SDS011;21840;44.920;8.616;2023-02-01T03:36:49;52.08;;;27.55;;
35715;SDS011;21840;44.920;8.616;2023-02-01T03:39:34;56.88;;;27.38;;
35715;SDS011;21840;44.920;8.616;2023-02-01T03:42:04;55.72;;;29.05;;
35715;SDS011;21840;44.920;8.616;2023-02-01T03:47:26;52.78;;;25.77;;
35715;SDS011;21840;44.920;8.616;2023-02-01T03:50:00;56.80;;;28.65;;
35715;SDS011;21840;44.920;8.616;2023-02-01T03:53:13;58.35;;;29.55;;
35715;SDS011;21840;44.920;8.616;2023-02-01T03:55:31;62.28;;;29.63;;
35715;SDS011;21840;44.920;8.616;2023-02-01T03:58:02;58.13;;;29.75;;
35715;SDS011;21840;44.920;8.616;2023-02-01T04:00:33;56.92;;;29.13;;
35715;SDS011;21840;44.920;8.616;2023-02-01T04:02:59;60.28;;;30.70;;
35715;SDS011;21840;44.920;8.616;2023-02-01T04:05:24;64.78;;;30.75;;
35715;SDS011;21840;44.920;8.616;2023-02-01T04:07:57;61.15;;;31.60;;
35715;SDS011;21840;44.920;8.616;2023-02-01T04:10:23;59.00;;;31.77;;
35715;SDS011;21840;44.920;8.616;2023-02-01T04:12:49;60.72;;;32.08;;
35715;SDS011;21840;44.920;8.616;2023-02-01T04:15:14;64.57;;;32.42;;
35715;SDS011;21840;44.920;8.616;2023-02-01T04:17:40;66.70;;;32.45;;
35715;SDS011;21840;44.920;8.616;2023-02-01T04:20:05;69.43;;;33.92;;
35715;SDS011;21840;44.920;8.616;2023-02-01T04:22:31;57.53;;;30.10;;
35715;SDS011;21840;44.920;8.616;2023-02-01T04:24:57;64.38;;;32.80;;
35715;SDS011;21840;44.920;8.616;2023-02-01T04:27:23;65.45;;;32.10;;
35715;SDS011;21840;44.920;8.616;2023-02-01T04:29:48;55.63;;;29.98;;
35715;SDS011;21840;44.920;8.616;2023-02-01T04:32:17;53.90;;;27.20;;
35715;SDS011;21840;44.920;8.616;2023-02-01T04:34:44;55.03;;;28.42;;
35715;SDS011;21840;44.920;8.616;2023-02-01T04:37:10;55.20;;;27.27;;
35715;SDS011;21840;44.920;8.616;2023-02-01T04:39:36;60.90;;;29.42;;
35715;SDS011;21840;44.920;8.616;2023-02-01T04:42:01;57.20;;;28.15;;
35715;SDS011;21840;44.920;8.616;2023-02-01T04:44:27;58.47;;;31.35;;
35715;SDS011;21840;44.920;8.616;2023-02-01T04:46:53;65.30;;;31.42;;
35715;SDS011;21840;44.920;8.616;2023-02-01T04:49:18;61.10;;;29.83;;
35715;SDS011;21840;44.920;8.616;2023-02-01T04:51:45;59.65;;;29.85;;
35715;SDS011;21840;44.920;8.616;2023-02-01T04:54:10;60.75;;;29.45;;
35715;SDS011;21840;44.920;8.616;2023-02-01T04:56:38;59.45;;;29.52;;
35715;SDS011;21840;44.920;8.616;2023-02-01T04:59:05;59.65;;;30.27;;
35715;SDS011;21840;44.920;8.616;2023-02-01T05:01:30;64.60;;;30.60;;
35715;SDS011;21840;44.920;8.616;2023-02-01T05:03:56;57.53;;;31.23;;
35715;SDS011;21840;44.920;8.616;2023-02-01T05:06:22;69.15;;;33.10;;
35715;SDS011;21840;44.920;8.616;2023-02-01T05:08:47;61.80;;;31.35;;
35715;SDS011;21840;44.920;8.616;2023-02-01T05:11:13;70.65;;;33.25;;
35715;SDS011;21840;44.920;8.616;2023-02-01T05:13:58;64.55;;;32.00;;
35715;SDS011;21840;44.920;8.616;2023-02-01T05:16:24;60.25;;;30.75;;
35715;SDS011;21840;44.920;8.616;2023-02-01T05:18:50;64.65;;;32.13;;
35715;SDS011;21840;44.920;8.616;2023-02-01T05:21:17;60.03;;;32.17;;
35715;SDS011;21840;44.920;8.616;2023-02-01T05:23:42;64.63;;;31.33;;
35715;SDS011;21840;44.920;8.616;2023-02-01T05:26:26;64.93;;;34.05;;
35715;SDS011;21840;44.920;8.616;2023-02-01T05:28:52;65.03;;;33.97;;
35715;SDS011;21840;44.920;8.616;2023-02-01T05:31:17;68.38;;;32.45;;
35715;SDS011;21840;44.920;8.616;2023-02-01T05:33:43;69.75;;;33.33;;
35715;SDS011;21840;44.920;8.616;2023-02-01T05:36:08;65.68;;;33.03;;
35715;SDS011;21840;44.920;8.616;2023-02-01T05:38:33;72.40;;;33.53;;
35715;SDS011;21840;44.920;8.616;2023-02-01T05:40:59;66.40;;;32.63;;
35715;SDS011;21840;44.920;8.616;2023-02-01T05:43:24;67.18;;;32.65;;
35715;SDS011;21840;44.920;8.616;2023-02-01T05:45:51;65.40;;;32.60;;
35715;SDS011;21840;44.920;8.616;2023-02-01T05:48:18;66.18;;;32.15;;
35715;SDS011;21840;44.920;8.616;2023-02-01T05:50:43;63.78;;;32.13;;
35715;SDS011;21840;44.920;8.616;2023-02-01T05:53:09;61.63;;;29.42;;
35715;SDS011;21840;44.920;8.616;2023-02-01T05:55:35;64.45;;;32.15;;
35715;SDS011;21840;44.920;8.616;2023-02-01T05:58:01;57.40;;;31.30;;
35715;SDS011;21840;44.920;8.616;2023-02-01T06:00:27;64.32;;;32.38;;
35715;SDS011;21840;44.920;8.616;2023-02-01T06:02:52;71.68;;;31.60;;
35715;SDS011;21840;44.920;8.616;2023-02-01T06:05:18;61.03;;;31.23;;
35715;SDS011;21840;44.920;8.616;2023-02-01T06:07:43;62.47;;;31.85;;
35715;SDS011;21840;44.920;8.616;2023-02-01T06:10:09;73.15;;;33.92;;
35715;SDS011;21840;44.920;8.616;2023-02-01T06:12:35;68.90;;;32.97;;
35715;SDS011;21840;44.920;8.616;2023-02-01T06:15:00;66.22;;;32.88;;
35715;SDS011;21840;44.920;8.616;2023-02-01T06:17:26;67.00;;;31.83;;
35715;SDS011;21840;44.920;8.616;2023-02-01T06:19:51;70.97;;;33.92;;
35715;SDS011;21840;44.920;8.616;2023-02-01T06:22:16;71.80;;;36.20;;
35715;SDS011;21840;44.920;8.616;2023-02-01T06:24:42;72.35;;;35.47;;
35715;SDS011;21840;44.920;8.616;2023-02-01T06:27:08;73.60;;;34.65;;
35715;SDS011;21840;44.920;8.616;2023-02-01T06:29:34;67.22;;;34.53;;
35715;SDS011;21840;44.920;8.616;2023-02-01T06:32:00;68.00;;;32.72;;
35715;SDS011;21840;44.920;8.616;2023-02-01T06:34:25;66.47;;;33.72;;
35715;SDS011;21840;44.920;8.616;2023-02-01T06:36:50;63.75;;;32.58;;
35715;SDS011;21840;44.920;8.616;2023-02-01T06:39:16;74.38;;;33.30;;
35715;SDS011;21840;44.920;8.616;2023-02-01T06:41:48;64.55;;;32.92;;
35715;SDS011;21840;44.920;8.616;2023-02-01T06:44:14;66.40;;;32.92;;
35715;SDS011;21840;44.920;8.616;2023-02-01T06:46:40;65.38;;;34.08;;
35715;SDS011;21840;44.920;8.616;2023-02-01T06:49:06;68.10;;;31.98;;
35715;SDS011;21840;44.920;8.616;2023-02-01T06:51:31;61.78;;;31.83;;
35715;SDS011;21840;44.920;8.616;2023-02-01T06:53:57;64.85;;;32.50;;
35715;SDS011;21840;44.920;8.616;2023-02-01T06:56:22;64.82;;;32.30;;
35715;SDS011;21840;44.920;8.616;2023-02-01T06:58:48;64.60;;;32.30;;
35715;SDS011;21840;44.920;8.616;2023-02-01T07:01:14;65.63;;;33.03;;
35715;SDS011;21840;44.920;8.616;2023-02-01T07:03:40;73.38;;;33.33;;
35715;SDS011;21840;44.920;8.616;2023-02-01T07:06:07;71.95;;;33.70;;
35715;SDS011;21840;44.920;8.616;2023-02-01T07:08:34;63.97;;;34.35;;
35715;SDS011;21840;44.920;8.616;2023-02-01T07:11:02;62.83;;;32.55;;
35715;SDS011;21840;44.920;8.616;2023-02-01T07:13:29;66.45;;;33.80;;
35715;SDS011;21840;44.920;8.616;2023-02-01T07:15:57;68.38;;;33.78;;
35715;SDS011;21840;44.920;8.616;2023-02-01T07:18:23;67.15;;;33.55;;
35715;SDS011;21840;44.920;8.616;2023-02-01T07:20:51;92.22;;;34.47;;
35715;SDS011;21840;44.920;8.616;2023-02-01T07:23:17;83.30;;;34.33;;
35715;SDS011;21840;44.920;8.616;2023-02-01T07:25:42;71.45;;;34.35;;
35715;SDS011;21840;44.920;8.616;2023-02-01T07:28:08;66.68;;;32.80;;
35715;SDS011;21840;44.920;8.616;2023-02-01T07:30:33;62.38;;;31.88;;
35715;SDS011;21840;44.920;8.616;2023-02-01T07:32:58;67.88;;;32.60;;
35715;SDS011;21840;44.920;8.616;2023-02-01T07:35:26;64.82;;;31.50;;
35715;SDS011;21840;44.920;8.616;2023-02-01T07:37:53;60.75;;;31.13;;
35715;SDS011;21840;44.920;8.616;2023-02-01T07:40:18;58.72;;;29.52;;
35715;SDS011;21840;44.920;8.616;2023-02-01T07:42:48;64.32;;;31.45;;
35715;SDS011;21840;44.920;8.616;2023-02-01T07:45:13;62.47;;;31.05;;
35715;SDS011;21840;44.920;8.616;2023-02-01T07:47:40;65.03;;;32.83;;
35715;SDS011;21840;44.920;8.616;2023-02-01T07:50:05;61.65;;;31.15;;
35715;SDS011;21840;44.920;8.616;2023-02-01T07:52:31;63.40;;;32.08;;
35715;SDS011;21840;44.920;8.616;2023-02-01T07:54:57;65.18;;;32.45;;
35715;SDS011;21840;44.920;8.616;2023-02-01T07:57:22;65.07;;;31.08;;
35715;SDS011;21840;44.920;8.616;2023-02-01T07:59:48;56.92;;;30.63;;
35715;SDS011;21840;44.920;8.616;2023-02-01T08:02:37;56.00;;;29.70;;
35715;SDS011;21840;44.920;8.616;2023-02-01T08:05:03;65.80;;;29.98;;
35715;SDS011;21840;44.920;8.616;2023-02-01T08:07:30;60.20;;;29.33;;
35715;SDS011;21840;44.920;8.616;2023-02-01T08:09:56;68.55;;;30.90;;
35715;SDS011;21840;44.920;8.616;2023-02-01T08:12:21;66.15;;;31.90;;
35715;SDS011;21840;44.920;8.616;2023-02-01T08:14:46;56.67;;;28.25;;
35715;SDS011;21840;44.920;8.616;2023-02-01T08:17:12;57.05;;;29.13;;
35715;SDS011;21840;44.920;8.616;2023-02-01T08:19:38;60.00;;;30.30;;
35715;SDS011;21840;44.920;8.616;2023-02-01T08:22:03;58.00;;;30.58;;
35715;SDS011;21840;44.920;8.616;2023-02-01T08:24:32;60.28;;;30.33;;
35715;SDS011;21840;44.920;8.616;2023-02-01T08:27:00;58.28;;;29.25;;
35715;SDS011;21840;44.920;8.616;2023-02-01T08:29:26;62.88;;;30.17;;
35715;SDS011;21840;44.920;8.616;2023-02-01T08:31:52;61.22;;;28.88;;
35715;SDS011;21840;44.920;8.616;2023-02-01T08:34:19;62.45;;;29.13;;
35715;SDS011;21840;44.920;8.616;2023-02-01T08:36:44;63.80;;;28.98;;
35715;SDS011;21840;44.920;8.616;2023-02-01T08:39:10;55.75;;;28.42;;
35715;SDS011;21840;44.920;8.616;2023-02-01T08:41:36;52.30;;;27.35;;
35715;SDS011;21840;44.920;8.616;2023-02-01T08:44:02;56.03;;;27.95;;
35715;SDS011;21840;44.920;8.616;2023-02-01T08:46:28;83.07;;;30.08;;
35715;SDS011;21840;44.920;8.616;2023-02-01T08:48:54;66.97;;;30.33;;
35715;SDS011;21840;44.920;8.616;2023-02-01T08:51:20;58.20;;;28.60;;
35715;SDS011;21840;44.920;8.616;2023-02-01T08:53:47;55.65;;;29.15;;
35715;SDS011;21840;44.920;8.616;2023-02-01T08:56:15;67.22;;;28.63;;
35715;SDS011;21840;44.920;8.616;2023-02-01T08:58:41;58.83;;;29.55;;
35715;SDS011;21840;44.920;8.616;2023-02-01T09:01:13;59.10;;;29.15;;
35715;SDS011;21840;44.920;8.616;2023-02-01T09:03:40;58.20;;;29.77;;
35715;SDS011;21840;44.920;8.616;2023-02-01T09:06:07;70.18;;;29.73;;
35715;SDS011;21840;44.920;8.616;2023-02-01T09:08:34;94.20;;;30.85;;
35715;SDS011;21840;44.920;8.616;2023-02-01T09:11:04;58.28;;;29.92;;
35715;SDS011;21840;44.920;8.616;2023-02-01T09:13:32;55.10;;;29.40;;
35715;SDS011;21840;44.920;8.616;2023-02-01T09:15:58;57.97;;;29.83;;
35715;SDS011;21840;44.920;8.616;2023-02-01T09:18:25;56.80;;;29.83;;
35715;SDS011;21840;44.920;8.616;2023-02-01T09:20:51;50.25;;;27.05;;
35715;SDS011;21840;44.920;8.616;2023-02-01T09:23:16;54.08;;;28.38;;
35715;SDS011;21840;44.920;8.616;2023-02-01T09:25:42;62.45;;;29.15;;
35715;SDS011;21840;44.920;8.616;2023-02-01T09:28:08;54.75;;;29.90;;
35715;SDS011;21840;44.920;8.616;2023-02-01T09:30:34;56.88;;;29.63;;
35715;SDS011;21840;44.920;8.616;2023-02-01T09:33:01;57.58;;;29.52;;
35715;SDS011;21840;44.920;8.616;2023-02-01T09:35:27;68.47;;;29.75;;
35715;SDS011;21840;44.920;8.616;2023-02-01T09:37:53;60.58;;;29.15;;
35715;SDS011;21840;44.920;8.616;2023-02-01T09:40:19;51.47;;;28.55;;
35715;SDS011;21840;44.920;8.616;2023-02-01T09:42:58;54.58;;;28.88;;
35715;SDS011;21840;44.920;8.616;2023-02-01T09:48:16;49.22;;;28.85;;
35715;SDS011;21840;44.920;8.616;2023-02-01T09:50:51;76.38;;;30.20;;
35715;SDS011;21840;44.920;8.616;2023-02-01T09:53:22;85.97;;;30.42;;
35715;SDS011;21840;44.920;8.616;2023-02-01T09:55:50;118.38;;;31.60;;
35715;SDS011;21840;44.920;8.616;2023-02-01T10:00:47;64.93;;;29.95;;
35715;SDS011;21840;44.920;8.616;2023-02-01T10:03:17;63.95;;;29.10;;
35715;SDS011;21840;44.920;8.616;2023-02-01T10:05:54;63.75;;;30.05;;
35715;SDS011;21840;44.920;8.616;2023-02-01T10:27:12;52.35;;;27.67;;
35715;SDS011;21840;44.920;8.616;2023-02-01T10:29:54;59.70;;;29.60;;
35715;SDS011;21840;44.920;8.616;2023-02-01T10:32:28;52.65;;;27.38;;
35715;SDS011;21840;44.920;8.616;2023-02-01T10:34:59;45.10;;;26.75;;
35715;SDS011;21840;44.920;8.616;2023-02-01T10:37:31;58.13;;;27.17;;
35715;SDS011;21840;44.920;8.616;2023-02-01T10:42:41;49.13;;;25.23;;
35715;SDS011;21840;44.920;8.616;2023-02-01T10:45:13;49.88;;;25.63;;
35715;SDS011;21840;44.920;8.616;2023-02-01T10:47:42;48.67;;;24.73;;
35715;SDS011;21840;44.920;8.616;2023-02-01T10:53:04;42.63;;;24.42;;
35715;SDS011;21840;44.920;8.616;2023-02-01T10:58:19;50.03;;;25.45;;
35715;SDS011;21840;44.920;8.616;2023-02-01T11:05:57;39.63;;;22.67;;
35715;SDS011;21840;44.920;8.616;2023-02-01T11:08:23;41.40;;;21.52;;
35715;SDS011;21840;44.920;8.616;2023-02-01T11:10:56;38.72;;;21.70;;
35715;SDS011;21840;44.920;8.616;2023-02-01T11:13:27;56.03;;;24.92;;
35715;SDS011;21840;44.920;8.616;2023-02-01T11:15:55;51.47;;;24.92;;
35715;SDS011;21840;44.920;8.616;2023-02-01T11:18:25;48.35;;;23.73;;
35715;SDS011;21840;44.920;8.616;2023-02-01T11:20:53;44.08;;;22.50;;
35715;SDS011;21840;44.920;8.616;2023-02-01T11:23:21;46.08;;;21.90;;
35715;SDS011;21840;44.920;8.616;2023-02-01T11:28:14;35.78;;;19.70;;
35715;SDS011;21840;44.920;8.616;2023-02-01T11:30:41;33.80;;;19.08;;
35715;SDS011;21840;44.920;8.616;2023-02-01T11:33:15;31.40;;;17.40;;
35715;SDS011;21840;44.920;8.616;2023-02-01T11:35:43;32.63;;;15.38;;
35715;SDS011;21840;44.920;8.616;2023-02-01T11:38:20;37.65;;;16.15;;
35715;SDS011;21840;44.920;8.616;2023-02-01T11:40:50;32.15;;;16.02;;
35715;SDS011;21840;44.920;8.616;2023-02-01T11:43:23;31.55;;;15.65;;
35715;SDS011;21840;44.920;8.616;2023-02-01T11:45:57;29.65;;;14.30;;
35715;SDS011;21840;44.920;8.616;2023-02-01T11:48:25;34.88;;;14.50;;
35715;SDS011;21840;44.920;8.616;2023-02-01T11:56:51;32.70;;;14.10;;
35715;SDS011;21840;44.920;8.616;2023-02-01T12:07:48;26.95;;;14.45;;
35715;SDS011;21840;44.920;8.616;2023-02-01T12:10:29;32.45;;;16.00;;
35715;SDS011;21840;44.920;8.616;2023-02-01T12:16:17;25.92;;;12.65;;
35715;SDS011;21840;44.920;8.616;2023-02-01T12:21:42;38.53;;;14.15;;
35715;SDS011;21840;44.920;8.616;2023-02-01T12:30:42;31.33;;;15.15;;
35715;SDS011;21840;44.920;8.616;2023-02-01T12:46:50;30.08;;;15.13;;
35715;SDS011;21840;44.920;8.616;2023-02-01T12:49:21;27.88;;;14.32;;
35715;SDS011;21840;44.920;8.616;2023-02-01T12:51:54;28.35;;;12.40;;
35715;SDS011;21840;44.920;8.616;2023-02-01T12:54:34;21.65;;;11.10;;
35715;SDS011;21840;44.920;8.616;2023-02-01T12:57:28;26.55;;;11.57;;
35715;SDS011;21840;44.920;8.616;2023-02-01T13:00:12;18.13;;;9.50;;
35715;SDS011;21840;44.920;8.616;2023-02-01T13:02:50;22.25;;;9.68;;
35715;SDS011;21840;44.920;8.616;2023-02-01T13:05:17;28.05;;;10.15;;
35715;SDS011;21840;44.920;8.616;2023-02-01T13:07:48;22.08;;;10.63;;
35715;SDS011;21840;44.920;8.616;2023-02-01T13:10:28;18.48;;;9.65;;
35715;SDS011;21840;44.920;8.616;2023-02-01T13:13:01;23.48;;;10.20;;
35715;SDS011;21840;44.920;8.616;2023-02-01T13:15:47;25.20;;;9.38;;
35715;SDS011;21840;44.920;8.616;2023-02-01T13:18:21;29.40;;;9.07;;
35715;SDS011;21840;44.920;8.616;2023-02-01T13:21:04;27.63;;;8.13;;
35715;SDS011;21840;44.920;8.616;2023-02-01T13:23:34;50.22;;;9.90;;
35715;SDS011;21840;44.920;8.616;2023-02-01T13:26:05;25.65;;;8.10;;
35715;SDS011;21840;44.920;8.616;2023-02-01T13:31:21;21.30;;;7.03;;
35715;SDS011;21840;44.920;8.616;2023-02-01T13:42:28;17.70;;;6.63;;
35715;SDS011;21840;44.920;8.616;2023-02-01T13:45:05;19.35;;;4.82;;
35715;SDS011;21840;44.920;8.616;2023-02-01T13:47:41;12.82;;;4.50;;
35715;SDS011;21840;44.920;8.616;2023-02-01T13:50:30;10.55;;;3.05;;
35715;SDS011;21840;44.920;8.616;2023-02-01T13:53:04;6.53;;;2.33;;
35715;SDS011;21840;44.920;8.616;2023-02-01T13:55:41;14.55;;;3.20;;
35715;SDS011;21840;44.920;8.616;2023-02-01T14:00:45;10.25;;;2.53;;
35715;SDS011;21840;44.920;8.616;2023-02-01T14:03:14;6.43;;;2.50;;
35715;SDS011;21840;44.920;8.616;2023-02-01T14:08:11;16.08;;;3.40;;
35715;SDS011;21840;44.920;8.616;2023-02-01T14:47:52;17.10;;;3.05;;
35715;SDS011;21840;44.920;8.616;2023-02-01T14:55:34;13.68;;;2.50;;
35715;SDS011;21840;44.920;8.616;2023-02-01T14:58:05;6.43;;;2.50;;
35715;SDS011;21840;44.920;8.616;2023-02-01T15:00:47;8.45;;;2.70;;
35715;SDS011;21840;44.920;8.616;2023-02-01T15:05:56;10.50;;;3.08;;
35715;SDS011;21840;44.920;8.616;2023-02-01T15:08:27;16.40;;;2.53;;
35715;SDS011;21840;44.920;8.616;2023-02-01T15:10:55;16.50;;;2.58;;
35715;SDS011;21840;44.920;8.616;2023-02-01T15:13:24;15.80;;;3.08;;
35715;SDS011;21840;44.920;8.616;2023-02-01T15:16:11;15.80;;;2.65;;
35715;SDS011;21840;44.920;8.616;2023-02-01T15:18:38;15.50;;;3.40;;
35715;SDS011;21840;44.920;8.616;2023-02-01T15:21:05;7.75;;;2.35;;
35715;SDS011;21840;44.920;8.616;2023-02-01T15:23:32;16.02;;;2.70;;
35715;SDS011;21840;44.920;8.616;2023-02-01T15:25:58;12.02;;;2.70;;
35715;SDS011;21840;44.920;8.616;2023-02-01T15:28:26;14.13;;;2.90;;
35715;SDS011;21840;44.920;8.616;2023-02-01T15:30:53;14.30;;;2.92;;
35715;SDS011;21840;44.920;8.616;2023-02-01T15:33:19;6.55;;;2.63;;
35715;SDS011;21840;44.920;8.616;2023-02-01T15:35:49;11.90;;;2.95;;
35715;SDS011;21840;44.920;8.616;2023-02-01T15:43:20;13.25;;;2.75;;
35715;SDS011;21840;44.920;8.616;2023-02-01T15:45:47;11.68;;;2.88;;
35715;SDS011;21840;44.920;8.616;2023-02-01T15:48:16;9.45;;;2.65;;
35715;SDS011;21840;44.920;8.616;2023-02-01T15:50:49;17.45;;;2.92;;
35715;SDS011;21840;44.920;8.616;2023-02-01T15:53:18;15.38;;;2.97;;
35715;SDS011;21840;44.920;8.616;2023-02-01T15:55:46;9.52;;;2.67;;
35715;SDS011;21840;44.920;8.616;2023-02-01T15:58:18;15.00;;;3.35;;
35715;SDS011;21840;44.920;8.616;2023-02-01T16:00:47;7.30;;;2.50;;
35715;SDS011;21840;44.920;8.616;2023-02-01T16:06:01;15.63;;;2.88;;
35715;SDS011;21840;44.920;8.616;2023-02-01T16:08:30;13.65;;;3.13;;
35715;SDS011;21840;44.920;8.616;2023-02-01T16:11:01;13.70;;;3.42;;
35715;SDS011;21840;44.920;8.616;2023-02-01T16:13:47;13.30;;;2.58;;
35715;SDS011;21840;44.920;8.616;2023-02-01T16:16:13;14.05;;;2.40;;
35715;SDS011;21840;44.920;8.616;2023-02-01T16:18:41;10.88;;;2.67;;
35715;SDS011;21840;44.920;8.616;2023-02-01T16:21:07;21.55;;;2.85;;
35715;SDS011;21840;44.920;8.616;2023-02-01T16:23:34;9.30;;;2.40;;
35715;SDS011;21840;44.920;8.616;2023-02-01T16:26:00;11.20;;;2.70;;
35715;SDS011;21840;44.920;8.616;2023-02-01T16:28:26;8.25;;;2.40;;
35715;SDS011;21840;44.920;8.616;2023-02-01T16:30:51;11.02;;;3.13;;
35715;SDS011;21840;44.920;8.616;2023-02-01T16:33:18;11.45;;;3.35;;
35715;SDS011;21840;44.920;8.616;2023-02-01T16:35:46;13.82;;;4.22;;
35715;SDS011;21840;44.920;8.616;2023-02-01T16:38:15;6.97;;;2.10;;
35715;SDS011;21840;44.920;8.616;2023-02-01T16:40:44;9.77;;;2.95;;
35715;SDS011;21840;44.920;8.616;2023-02-01T16:43:21;15.45;;;4.00;;
35715;SDS011;21840;44.920;8.616;2023-02-01T16:45:48;8.95;;;2.80;;
35715;SDS011;21840;44.920;8.616;2023-02-01T16:48:22;12.77;;;3.47;;
35715;SDS011;21840;44.920;8.616;2023-02-01T16:50:58;10.48;;;2.90;;
35715;SDS011;21840;44.920;8.616;2023-02-01T16:53:26;12.02;;;3.00;;
35715;SDS011;21840;44.920;8.616;2023-02-01T16:55:53;12.52;;;3.55;;
35715;SDS011;21840;44.920;8.616;2023-02-01T16:58:19;15.45;;;3.72;;
35715;SDS011;21840;44.920;8.616;2023-02-01T17:00:45;12.50;;;3.65;;
35715;SDS011;21840;44.920;8.616;2023-02-01T17:03:12;16.77;;;4.53;;
35715;SDS011;21840;44.920;8.616;2023-02-01T17:05:42;14.30;;;3.92;;
35715;SDS011;21840;44.920;8.616;2023-02-01T17:08:12;13.43;;;3.65;;
35715;SDS011;21840;44.920;8.616;2023-02-01T17:10:40;14.88;;;4.68;;
35715;SDS011;21840;44.920;8.616;2023-02-01T17:13:08;13.93;;;5.10;;
35715;SDS011;21840;44.920;8.616;2023-02-01T17:15:37;13.95;;;4.00;;
35715;SDS011;21840;44.920;8.616;2023-02-01T17:18:03;26.38;;;9.38;;
35715;SDS011;21840;44.920;8.616;2023-02-01T17:20:30;23.63;;;9.05;;
35715;SDS011;21840;44.920;8.616;2023-02-01T17:22:57;17.15;;;6.22;;
35715;SDS011;21840;44.920;8.616;2023-02-01T17:25:23;11.50;;;4.25;;
35715;SDS011;21840;44.920;8.616;2023-02-01T17:27:50;17.02;;;4.80;;
35715;SDS011;21840;44.920;8.616;2023-02-01T17:30:16;18.60;;;4.20;;
35715;SDS011;21840;44.920;8.616;2023-02-01T17:32:42;13.45;;;3.53;;
35715;SDS011;21840;44.920;8.616;2023-02-01T17:35:18;14.82;;;4.40;;
35715;SDS011;21840;44.920;8.616;2023-02-01T17:37:48;16.70;;;4.15;;